sensor_id;sensor_type;location;lat;lon;timestamp;temperature;humidity
16627;DHT22;8427;52.204;7.202;2022-07-17T00:01:03;11.40;99.90
16627;DHT22;8427;52.204;7.202;2022-07-17T00:03:31;11.30;99.90
16627;DHT22;8427;52.204;7.202;2022-07-17T00:06:01;11.30;99.90
16627;DHT22;8427;52.204;7.202;2022-07-17T00:08:29;11.30;99.90
16627;DHT22;8427;52.204;7.202;2022-07-17T00:10:59;11.30;99.90
16627;DHT22;8427;52.204;7.202;2022-07-17T00:13:28;11.20;99.90
16627;DHT22;8427;52.204;7.202;2022-07-17T00:15:56;11.20;99.90
16627;DHT22;8427;52.204;7.202;2022-07-17T00:20:53;11.10;99.90
16627;DHT22;8427;52.204;7.202;2022-07-17T00:23:23;11.10;99.90
16627;DHT22;8427;52.204;7.202;2022-07-17T00:25:51;11.10;99.90
16627;DHT22;8427;52.204;7.202;2022-07-17T00:28:19;11.10;99.90
16627;DHT22;8427;52.204;7.202;2022-07-17T00:30:48;11.00;99.90
16627;DHT22;8427;52.204;7.202;2022-07-17T00:33:16;11.00;99.90
16627;DHT22;8427;52.204;7.202;2022-07-17T00:35:44;10.90;99.90
16627;DHT22;8427;52.204;7.202;2022-07-17T00:38:13;10.90;99.90
16627;DHT22;8427;52.204;7.202;2022-07-17T00:40:45;10.90;99.90
16627;DHT22;8427;52.204;7.202;2022-07-17T00:43:14;10.90;99.90
16627;DHT22;8427;52.204;7.202;2022-07-17T00:45:42;10.90;99.90
16627;DHT22;8427;52.204;7.202;2022-07-17T00:48:11;10.80;99.90
16627;DHT22;8427;52.204;7.202;2022-07-17T00:50:41;10.80;99.90
16627;DHT22;8427;52.204;7.202;2022-07-17T00:53:10;10.70;99.90
16627;DHT22;8427;52.204;7.202;2022-07-17T00:55:39;10.70;99.90
16627;DHT22;8427;52.204;7.202;2022-07-17T01:00:41;10.60;99.90
16627;DHT22;8427;52.204;7.202;2022-07-17T01:03:10;10.60;99.90
16627;DHT22;8427;52.204;7.202;2022-07-17T01:05:38;10.60;99.90
16627;DHT22;8427;52.204;7.202;2022-07-17T01:08:06;10.60;99.90
16627;DHT22;8427;52.204;7.202;2022-07-17T01:10:35;10.60;99.90
16627;DHT22;8427;52.204;7.202;2022-07-17T01:13:03;10.60;99.90
16627;DHT22;8427;52.204;7.202;2022-07-17T01:15:36;10.60;99.90
16627;DHT22;8427;52.204;7.202;2022-07-17T01:18:06;10.50;99.90
16627;DHT22;8427;52.204;7.202;2022-07-17T01:20:36;10.50;99.90
16627;DHT22;8427;52.204;7.202;2022-07-17T01:23:06;10.40;99.90
16627;DHT22;8427;52.204;7.202;2022-07-17T01:25:35;10.40;99.90
16627;DHT22;8427;52.204;7.202;2022-07-17T01:28:04;10.30;99.90
16627;DHT22;8427;52.204;7.202;2022-07-17T01:30:32;10.30;99.90
16627;DHT22;8427;52.204;7.202;2022-07-17T01:33:03;10.30;99.90
16627;DHT22;8427;52.204;7.202;2022-07-17T01:35:31;10.30;99.90
16627;DHT22;8427;52.204;7.202;2022-07-17T01:38:00;10.20;99.90
16627;DHT22;8427;52.204;7.202;2022-07-17T01:40:30;10.20;99.90
16627;DHT22;8427;52.204;7.202;2022-07-17T01:42:58;10.20;99.90
16627;DHT22;8427;52.204;7.202;2022-07-17T01:45:26;10.30;99.90
16627;DHT22;8427;52.204;7.202;2022-07-17T01:47:55;10.20;99.90
16627;DHT22;8427;52.204;7.202;2022-07-17T01:50:23;10.20;99.90
16627;DHT22;8427;52.204;7.202;2022-07-17T01:52:51;10.20;99.90
16627;DHT22;8427;52.204;7.202;2022-07-17T01:55:19;10.20;99.90
16627;DHT22;8427;52.204;7.202;2022-07-17T01:57:50;10.10;99.90
16627;DHT22;8427;52.204;7.202;2022-07-17T02:00:18;10.10;99.90
16627;DHT22;8427;52.204;7.202;2022-07-17T02:02:49;10.10;99.90
16627;DHT22;8427;52.204;7.202;2022-07-17T02:05:18;10.10;99.90
16627;DHT22;8427;52.204;7.202;2022-07-17T02:07:46;10.10;99.90
16627;DHT22;8427;52.204;7.202;2022-07-17T02:10:14;10.00;99.90
16627;DHT22;8427;52.204;7.202;2022-07-17T02:12:43;10.00;99.90
16627;DHT22;8427;52.204;7.202;2022-07-17T02:15:13;10.00;99.90
16627;DHT22;8427;52.204;7.202;2022-07-17T02:17:42;9.90;99.90
16627;DHT22;8427;52.204;7.202;2022-07-17T02:20:11;9.90;99.90
16627;DHT22;8427;52.204;7.202;2022-07-17T02:22:40;9.80;99.90
16627;DHT22;8427;52.204;7.202;2022-07-17T02:25:09;9.80;99.90
16627;DHT22;8427;52.204;7.202;2022-07-17T02:27:39;9.70;99.90
16627;DHT22;8427;52.204;7.202;2022-07-17T02:30:09;9.70;99.90
16627;DHT22;8427;52.204;7.202;2022-07-17T02:32:40;9.70;99.90
16627;DHT22;8427;52.204;7.202;2022-07-17T02:35:09;9.70;99.90
16627;DHT22;8427;52.204;7.202;2022-07-17T02:37:39;9.60;99.90
16627;DHT22;8427;52.204;7.202;2022-07-17T02:40:10;9.60;99.90
16627;DHT22;8427;52.204;7.202;2022-07-17T02:42:39;9.60;99.90
16627;DHT22;8427;52.204;7.202;2022-07-17T02:45:08;9.50;99.90
16627;DHT22;8427;52.204;7.202;2022-07-17T02:47:37;9.50;99.90
16627;DHT22;8427;52.204;7.202;2022-07-17T02:50:09;9.50;99.90
16627;DHT22;8427;52.204;7.202;2022-07-17T02:52:37;9.50;99.90
16627;DHT22;8427;52.204;7.202;2022-07-17T02:55:06;9.40;99.90
16627;DHT22;8427;52.204;7.202;2022-07-17T02:57:35;9.40;99.90
16627;DHT22;8427;52.204;7.202;2022-07-17T03:00:05;9.40;99.90
16627;DHT22;8427;52.204;7.202;2022-07-17T03:02:34;9.30;99.90
16627;DHT22;8427;52.204;7.202;2022-07-17T03:05:03;9.40;99.90
16627;DHT22;8427;52.204;7.202;2022-07-17T03:07:33;9.30;99.90
16627;DHT22;8427;52.204;7.202;2022-07-17T03:10:02;9.30;99.90
16627;DHT22;8427;52.204;7.202;2022-07-17T03:12:30;9.30;99.90
16627;DHT22;8427;52.204;7.202;2022-07-17T03:14:59;9.30;99.90
16627;DHT22;8427;52.204;7.202;2022-07-17T03:17:27;9.30;99.90
16627;DHT22;8427;52.204;7.202;2022-07-17T03:19:55;9.30;99.90
16627;DHT22;8427;52.204;7.202;2022-07-17T03:22:23;9.30;99.90
16627;DHT22;8427;52.204;7.202;2022-07-17T03:24:53;9.30;99.90
16627;DHT22;8427;52.204;7.202;2022-07-17T03:27:21;9.30;99.90
16627;DHT22;8427;52.204;7.202;2022-07-17T03:29:49;9.30;99.90
16627;DHT22;8427;52.204;7.202;2022-07-17T03:32:18;9.30;99.90
16627;DHT22;8427;52.204;7.202;2022-07-17T03:34:47;9.30;99.90
16627;DHT22;8427;52.204;7.202;2022-07-17T03:37:16;9.30;99.90
16627;DHT22;8427;52.204;7.202;2022-07-17T03:39:44;9.20;99.90
16627;DHT22;8427;52.204;7.202;2022-07-17T03:42:13;9.20;99.90
16627;DHT22;8427;52.204;7.202;2022-07-17T03:44:42;9.20;99.90
16627;DHT22;8427;52.204;7.202;2022-07-17T03:47:10;9.20;99.90
16627;DHT22;8427;52.204;7.202;2022-07-17T03:49:38;9.20;99.90
16627;DHT22;8427;52.204;7.202;2022-07-17T03:52:10;9.20;99.90
16627;DHT22;8427;52.204;7.202;2022-07-17T03:54:38;9.20;99.90
16627;DHT22;8427;52.204;7.202;2022-07-17T03:57:06;9.20;99.90
16627;DHT22;8427;52.204;7.202;2022-07-17T03:59:36;9.30;99.90
16627;DHT22;8427;52.204;7.202;2022-07-17T04:02:04;9.30;99.90
16627;DHT22;8427;52.204;7.202;2022-07-17T04:04:32;9.40;99.90
16627;DHT22;8427;52.204;7.202;2022-07-17T04:07:00;9.40;99.90
16627;DHT22;8427;52.204;7.202;2022-07-17T04:09:28;9.50;99.90
16627;DHT22;8427;52.204;7.202;2022-07-17T04:11:57;9.50;99.90
16627;DHT22;8427;52.204;7.202;2022-07-17T04:14:25;9.60;99.90
16627;DHT22;8427;52.204;7.202;2022-07-17T04:16:55;9.70;99.90
16627;DHT22;8427;52.204;7.202;2022-07-17T04:19:23;9.80;99.90
16627;DHT22;8427;52.204;7.202;2022-07-17T04:21:51;9.80;99.90
16627;DHT22;8427;52.204;7.202;2022-07-17T04:24:19;9.90;99.90
16627;DHT22;8427;52.204;7.202;2022-07-17T04:26:48;9.90;99.90
16627;DHT22;8427;52.204;7.202;2022-07-17T04:29:16;9.90;99.90
16627;DHT22;8427;52.204;7.202;2022-07-17T04:31:45;10.00;99.90
16627;DHT22;8427;52.204;7.202;2022-07-17T04:34:14;10.10;99.90
16627;DHT22;8427;52.204;7.202;2022-07-17T04:36:42;10.20;99.90
16627;DHT22;8427;52.204;7.202;2022-07-17T04:39:11;10.30;99.90
16627;DHT22;8427;52.204;7.202;2022-07-17T04:41:39;10.50;99.90
16627;DHT22;8427;52.204;7.202;2022-07-17T04:44:07;10.60;99.90
16627;DHT22;8427;52.204;7.202;2022-07-17T04:46:35;10.80;99.90
16627;DHT22;8427;52.204;7.202;2022-07-17T04:49:04;10.90;99.90
16627;DHT22;8427;52.204;7.202;2022-07-17T04:51:33;11.10;99.90
16627;DHT22;8427;52.204;7.202;2022-07-17T04:54:01;11.10;99.90
16627;DHT22;8427;52.204;7.202;2022-07-17T04:56:30;11.30;99.90
16627;DHT22;8427;52.204;7.202;2022-07-17T04:58:58;11.40;99.90
16627;DHT22;8427;52.204;7.202;2022-07-17T05:01:26;11.50;99.90
16627;DHT22;8427;52.204;7.202;2022-07-17T05:03:55;11.70;99.90
16627;DHT22;8427;52.204;7.202;2022-07-17T05:06:23;11.90;99.90
16627;DHT22;8427;52.204;7.202;2022-07-17T05:08:52;12.00;99.90
16627;DHT22;8427;52.204;7.202;2022-07-17T05:11:21;12.20;99.90
16627;DHT22;8427;52.204;7.202;2022-07-17T05:13:49;12.50;99.90
16627;DHT22;8427;52.204;7.202;2022-07-17T05:16:17;12.70;99.90
16627;DHT22;8427;52.204;7.202;2022-07-17T05:18:45;13.10;99.90
16627;DHT22;8427;52.204;7.202;2022-07-17T05:21:14;13.40;99.90
16627;DHT22;8427;52.204;7.202;2022-07-17T05:23:42;13.80;99.90
16627;DHT22;8427;52.204;7.202;2022-07-17T05:26:11;14.00;99.90
16627;DHT22;8427;52.204;7.202;2022-07-17T05:28:40;14.10;99.90
16627;DHT22;8427;52.204;7.202;2022-07-17T05:31:08;14.20;99.90
16627;DHT22;8427;52.204;7.202;2022-07-17T05:33:36;14.30;99.90
16627;DHT22;8427;52.204;7.202;2022-07-17T05:36:05;14.60;99.90
16627;DHT22;8427;52.204;7.202;2022-07-17T05:38:33;15.10;99.90
16627;DHT22;8427;52.204;7.202;2022-07-17T05:41:01;15.10;99.90
16627;DHT22;8427;52.204;7.202;2022-07-17T05:43:31;15.10;99.90
16627;DHT22;8427;52.204;7.202;2022-07-17T05:45:59;15.10;99.90
16627;DHT22;8427;52.204;7.202;2022-07-17T05:48:30;15.20;99.90
16627;DHT22;8427;52.204;7.202;2022-07-17T05:50:58;15.20;99.90
16627;DHT22;8427;52.204;7.202;2022-07-17T05:53:29;15.10;99.90
16627;DHT22;8427;52.204;7.202;2022-07-17T05:55:57;15.20;99.90
16627;DHT22;8427;52.204;7.202;2022-07-17T05:58:25;15.10;99.90
16627;DHT22;8427;52.204;7.202;2022-07-17T06:00:55;15.40;99.90
16627;DHT22;8427;52.204;7.202;2022-07-17T06:03:23;15.50;99.90
16627;DHT22;8427;52.204;7.202;2022-07-17T06:05:51;15.80;99.90
16627;DHT22;8427;52.204;7.202;2022-07-17T06:08:20;15.90;99.90
16627;DHT22;8427;52.204;7.202;2022-07-17T06:10:48;15.90;99.90
16627;DHT22;8427;52.204;7.202;2022-07-17T06:13:16;16.10;99.90
16627;DHT22;8427;52.204;7.202;2022-07-17T06:15:45;16.10;99.90
16627;DHT22;8427;52.204;7.202;2022-07-17T06:18:15;16.10;99.90
16627;DHT22;8427;52.204;7.202;2022-07-17T06:20:43;16.20;99.90
16627;DHT22;8427;52.204;7.202;2022-07-17T06:23:11;16.50;99.90
16627;DHT22;8427;52.204;7.202;2022-07-17T06:25:39;16.60;99.90
16627;DHT22;8427;52.204;7.202;2022-07-17T06:28:07;16.90;99.90
16627;DHT22;8427;52.204;7.202;2022-07-17T06:30:35;16.90;99.90
16627;DHT22;8427;52.204;7.202;2022-07-17T06:33:04;17.00;99.90
16627;DHT22;8427;52.204;7.202;2022-07-17T06:35:33;17.30;99.90
16627;DHT22;8427;52.204;7.202;2022-07-17T06:38:07;17.60;99.90
16627;DHT22;8427;52.204;7.202;2022-07-17T06:40:37;18.00;99.90
16627;DHT22;8427;52.204;7.202;2022-07-17T06:43:06;18.20;99.90
16627;DHT22;8427;52.204;7.202;2022-07-17T06:45:34;18.40;99.90
16627;DHT22;8427;52.204;7.202;2022-07-17T06:48:03;18.20;99.90
16627;DHT22;8427;52.204;7.202;2022-07-17T06:50:33;18.00;99.90
16627;DHT22;8427;52.204;7.202;2022-07-17T06:53:01;17.90;99.90
16627;DHT22;8427;52.204;7.202;2022-07-17T06:55:29;17.80;99.90
16627;DHT22;8427;52.204;7.202;2022-07-17T06:57:57;17.70;99.90
16627;DHT22;8427;52.204;7.202;2022-07-17T07:00:26;17.60;99.90
16627;DHT22;8427;52.204;7.202;2022-07-17T07:02:54;17.60;99.90
16627;DHT22;8427;52.204;7.202;2022-07-17T07:05:22;17.70;99.90
16627;DHT22;8427;52.204;7.202;2022-07-17T07:07:52;17.50;99.90
16627;DHT22;8427;52.204;7.202;2022-07-17T07:10:20;17.40;99.90
16627;DHT22;8427;52.204;7.202;2022-07-17T07:12:49;17.50;99.90
16627;DHT22;8427;52.204;7.202;2022-07-17T07:15:17;17.60;99.90
16627;DHT22;8427;52.204;7.202;2022-07-17T07:17:45;17.60;99.90
16627;DHT22;8427;52.204;7.202;2022-07-17T07:20:14;17.80;99.90
16627;DHT22;8427;52.204;7.202;2022-07-17T07:22:42;17.90;99.90
16627;DHT22;8427;52.204;7.202;2022-07-17T07:25:12;17.90;99.90
16627;DHT22;8427;52.204;7.202;2022-07-17T07:27:40;17.80;99.90
16627;DHT22;8427;52.204;7.202;2022-07-17T07:30:09;17.80;99.90
16627;DHT22;8427;52.204;7.202;2022-07-17T07:32:38;18.00;99.90
16627;DHT22;8427;52.204;7.202;2022-07-17T07:35:08;18.10;99.90
16627;DHT22;8427;52.204;7.202;2022-07-17T07:37:36;18.10;99.90
16627;DHT22;8427;52.204;7.202;2022-07-17T07:40:06;18.20;99.90
16627;DHT22;8427;52.204;7.202;2022-07-17T07:42:36;18.10;99.90
16627;DHT22;8427;52.204;7.202;2022-07-17T07:45:06;18.20;99.90
16627;DHT22;8427;52.204;7.202;2022-07-17T07:47:40;18.30;99.90
16627;DHT22;8427;52.204;7.202;2022-07-17T07:50:09;18.40;99.90
16627;DHT22;8427;52.204;7.202;2022-07-17T07:52:38;18.30;99.90
16627;DHT22;8427;52.204;7.202;2022-07-17T07:55:07;18.50;99.90
16627;DHT22;8427;52.204;7.202;2022-07-17T07:57:47;18.60;99.90
16627;DHT22;8427;52.204;7.202;2022-07-17T08:00:16;18.50;99.90
16627;DHT22;8427;52.204;7.202;2022-07-17T08:02:44;18.50;99.90
16627;DHT22;8427;52.204;7.202;2022-07-17T08:05:13;18.50;99.90
16627;DHT22;8427;52.204;7.202;2022-07-17T08:07:41;18.80;99.90
16627;DHT22;8427;52.204;7.202;2022-07-17T08:10:09;18.80;99.90
16627;DHT22;8427;52.204;7.202;2022-07-17T08:12:37;18.80;99.90
16627;DHT22;8427;52.204;7.202;2022-07-17T08:15:15;18.90;99.90
16627;DHT22;8427;52.204;7.202;2022-07-17T08:17:44;19.00;99.90
16627;DHT22;8427;52.204;7.202;2022-07-17T08:20:13;19.00;99.90
16627;DHT22;8427;52.204;7.202;2022-07-17T08:22:41;19.10;99.90
16627;DHT22;8427;52.204;7.202;2022-07-17T08:25:30;19.20;99.90
16627;DHT22;8427;52.204;7.202;2022-07-17T08:27:59;19.40;99.90
16627;DHT22;8427;52.204;7.202;2022-07-17T08:30:29;19.40;99.90
16627;DHT22;8427;52.204;7.202;2022-07-17T08:33:02;19.40;99.90
16627;DHT22;8427;52.204;7.202;2022-07-17T08:35:31;19.50;99.90
16627;DHT22;8427;52.204;7.202;2022-07-17T08:37:59;19.40;99.90
16627;DHT22;8427;52.204;7.202;2022-07-17T08:40:30;19.50;99.90
16627;DHT22;8427;52.204;7.202;2022-07-17T08:43:00;19.50;99.90
16627;DHT22;8427;52.204;7.202;2022-07-17T08:45:30;19.60;99.90
16627;DHT22;8427;52.204;7.202;2022-07-17T08:47:59;19.50;99.90
16627;DHT22;8427;52.204;7.202;2022-07-17T08:50:30;19.60;99.90
16627;DHT22;8427;52.204;7.202;2022-07-17T08:53:00;19.70;99.90
16627;DHT22;8427;52.204;7.202;2022-07-17T08:55:29;19.70;99.90
16627;DHT22;8427;52.204;7.202;2022-07-17T08:57:58;19.60;99.90
16627;DHT22;8427;52.204;7.202;2022-07-17T09:00:27;19.90;99.90
16627;DHT22;8427;52.204;7.202;2022-07-17T09:02:58;19.90;99.90
16627;DHT22;8427;52.204;7.202;2022-07-17T09:05:29;20.00;99.90
16627;DHT22;8427;52.204;7.202;2022-07-17T09:07:58;20.10;99.90
16627;DHT22;8427;52.204;7.202;2022-07-17T09:10:31;20.20;99.90
16627;DHT22;8427;52.204;7.202;2022-07-17T09:13:00;20.40;99.90
16627;DHT22;8427;52.204;7.202;2022-07-17T09:15:29;20.40;99.90
16627;DHT22;8427;52.204;7.202;2022-07-17T09:18:02;20.40;99.90
16627;DHT22;8427;52.204;7.202;2022-07-17T09:20:30;20.40;99.90
16627;DHT22;8427;52.204;7.202;2022-07-17T09:23:00;20.50;99.90
16627;DHT22;8427;52.204;7.202;2022-07-17T09:25:36;20.50;99.90
16627;DHT22;8427;52.204;7.202;2022-07-17T09:28:06;20.60;99.90
16627;DHT22;8427;52.204;7.202;2022-07-17T09:30:35;20.70;99.90
16627;DHT22;8427;52.204;7.202;2022-07-17T09:33:14;20.80;99.90
16627;DHT22;8427;52.204;7.202;2022-07-17T09:35:47;21.00;99.90
16627;DHT22;8427;52.204;7.202;2022-07-17T09:38:26;20.70;99.90
16627;DHT22;8427;52.204;7.202;2022-07-17T09:41:05;20.80;99.90
16627;DHT22;8427;52.204;7.202;2022-07-17T09:43:47;20.80;99.90
16627;DHT22;8427;52.204;7.202;2022-07-17T09:46:19;21.00;99.90
16627;DHT22;8427;52.204;7.202;2022-07-17T09:48:51;21.10;99.90
16627;DHT22;8427;52.204;7.202;2022-07-17T09:51:23;21.20;99.90
16627;DHT22;8427;52.204;7.202;2022-07-17T09:53:53;21.20;99.90
16627;DHT22;8427;52.204;7.202;2022-07-17T09:56:23;21.20;99.90
16627;DHT22;8427;52.204;7.202;2022-07-17T09:58:54;21.10;99.90
16627;DHT22;8427;52.204;7.202;2022-07-17T10:01:23;21.10;99.90
16627;DHT22;8427;52.204;7.202;2022-07-17T10:03:53;21.10;99.90
16627;DHT22;8427;52.204;7.202;2022-07-17T10:06:23;21.10;99.90
16627;DHT22;8427;52.204;7.202;2022-07-17T10:08:53;20.90;99.90
16627;DHT22;8427;52.204;7.202;2022-07-17T10:11:23;21.10;99.90
16627;DHT22;8427;52.204;7.202;2022-07-17T10:13:53;21.50;99.90
16627;DHT22;8427;52.204;7.202;2022-07-17T10:16:25;21.60;99.90
16627;DHT22;8427;52.204;7.202;2022-07-17T10:18:57;21.60;99.90
16627;DHT22;8427;52.204;7.202;2022-07-17T10:21:30;21.80;99.90
16627;DHT22;8427;52.204;7.202;2022-07-17T10:24:07;21.60;99.90
16627;DHT22;8427;52.204;7.202;2022-07-17T10:26:41;21.60;99.90
16627;DHT22;8427;52.204;7.202;2022-07-17T10:29:28;21.70;99.90
16627;DHT22;8427;52.204;7.202;2022-07-17T10:31:58;21.90;99.90
16627;DHT22;8427;52.204;7.202;2022-07-17T10:34:42;22.10;99.90
16627;DHT22;8427;52.204;7.202;2022-07-17T10:37:15;21.90;99.90
16627;DHT22;8427;52.204;7.202;2022-07-17T10:39:52;22.00;99.90
16627;DHT22;8427;52.204;7.202;2022-07-17T10:42:44;22.00;99.90
16627;DHT22;8427;52.204;7.202;2022-07-17T10:45:15;22.10;99.90
16627;DHT22;8427;52.204;7.202;2022-07-17T10:47:45;22.40;99.90
16627;DHT22;8427;52.204;7.202;2022-07-17T10:50:15;22.30;99.90
16627;DHT22;8427;52.204;7.202;2022-07-17T10:52:44;22.00;99.90
16627;DHT22;8427;52.204;7.202;2022-07-17T10:55:19;22.30;99.90
16627;DHT22;8427;52.204;7.202;2022-07-17T10:57:50;22.40;99.90
16627;DHT22;8427;52.204;7.202;2022-07-17T11:00:18;22.40;99.90
16627;DHT22;8427;52.204;7.202;2022-07-17T11:02:47;22.50;99.90
16627;DHT22;8427;52.204;7.202;2022-07-17T11:05:17;22.60;99.90
16627;DHT22;8427;52.204;7.202;2022-07-17T11:07:50;22.60;99.90
16627;DHT22;8427;52.204;7.202;2022-07-17T11:10:19;22.50;99.90
16627;DHT22;8427;52.204;7.202;2022-07-17T11:12:48;22.50;99.90
16627;DHT22;8427;52.204;7.202;2022-07-17T11:15:16;22.60;99.90
16627;DHT22;8427;52.204;7.202;2022-07-17T11:17:46;22.70;99.90
16627;DHT22;8427;52.204;7.202;2022-07-17T11:20:17;22.70;99.90
16627;DHT22;8427;52.204;7.202;2022-07-17T11:22:45;22.70;99.90
16627;DHT22;8427;52.204;7.202;2022-07-17T11:25:13;22.80;99.90
16627;DHT22;8427;52.204;7.202;2022-07-17T11:27:42;22.80;99.90
16627;DHT22;8427;52.204;7.202;2022-07-17T11:30:12;23.10;99.90
16627;DHT22;8427;52.204;7.202;2022-07-17T11:32:43;23.20;99.90
16627;DHT22;8427;52.204;7.202;2022-07-17T11:35:17;23.40;99.90
16627;DHT22;8427;52.204;7.202;2022-07-17T11:38:05;23.50;99.90
16627;DHT22;8427;52.204;7.202;2022-07-17T11:40:33;23.60;99.90
16627;DHT22;8427;52.204;7.202;2022-07-17T11:43:02;23.60;99.90
16627;DHT22;8427;52.204;7.202;2022-07-17T11:45:31;23.50;99.90
16627;DHT22;8427;52.204;7.202;2022-07-17T11:48:01;23.50;99.90
16627;DHT22;8427;52.204;7.202;2022-07-17T11:50:31;23.60;99.90
16627;DHT22;8427;52.204;7.202;2022-07-17T11:53:01;23.60;99.90
16627;DHT22;8427;52.204;7.202;2022-07-17T11:55:35;23.80;99.90
16627;DHT22;8427;52.204;7.202;2022-07-17T11:58:04;23.90;99.90
16627;DHT22;8427;52.204;7.202;2022-07-17T12:00:33;23.90;99.90
16627;DHT22;8427;52.204;7.202;2022-07-17T12:03:02;24.00;99.90
16627;DHT22;8427;52.204;7.202;2022-07-17T12:05:34;23.90;99.90
16627;DHT22;8427;52.204;7.202;2022-07-17T12:08:05;24.00;99.90
16627;DHT22;8427;52.204;7.202;2022-07-17T12:10:35;24.10;99.90
16627;DHT22;8427;52.204;7.202;2022-07-17T12:13:04;24.10;99.90
16627;DHT22;8427;52.204;7.202;2022-07-17T12:15:36;24.20;99.90
16627;DHT22;8427;52.204;7.202;2022-07-17T12:18:07;24.10;99.90
16627;DHT22;8427;52.204;7.202;2022-07-17T12:20:43;24.00;99.90
16627;DHT22;8427;52.204;7.202;2022-07-17T12:23:26;23.90;99.90
16627;DHT22;8427;52.204;7.202;2022-07-17T12:26:04;23.90;99.90
16627;DHT22;8427;52.204;7.202;2022-07-17T12:28:33;23.70;99.90
16627;DHT22;8427;52.204;7.202;2022-07-17T12:31:01;24.30;99.90
16627;DHT22;8427;52.204;7.202;2022-07-17T12:33:30;24.30;99.90
16627;DHT22;8427;52.204;7.202;2022-07-17T12:36:00;24.20;99.90
16627;DHT22;8427;52.204;7.202;2022-07-17T12:38:28;24.20;99.90
16627;DHT22;8427;52.204;7.202;2022-07-17T12:40:57;24.20;99.90
16627;DHT22;8427;52.204;7.202;2022-07-17T12:43:26;24.30;99.90
16627;DHT22;8427;52.204;7.202;2022-07-17T12:45:54;24.40;99.90
16627;DHT22;8427;52.204;7.202;2022-07-17T12:48:32;24.70;99.90
16627;DHT22;8427;52.204;7.202;2022-07-17T12:51:04;24.60;99.90
16627;DHT22;8427;52.204;7.202;2022-07-17T12:53:34;24.80;99.90
16627;DHT22;8427;52.204;7.202;2022-07-17T12:56:03;24.60;99.90
16627;DHT22;8427;52.204;7.202;2022-07-17T12:58:32;24.80;99.90
16627;DHT22;8427;52.204;7.202;2022-07-17T13:01:00;24.80;99.60
16627;DHT22;8427;52.204;7.202;2022-07-17T13:03:28;24.90;99.90
16627;DHT22;8427;52.204;7.202;2022-07-17T13:05:57;25.00;98.10
16627;DHT22;8427;52.204;7.202;2022-07-17T13:08:30;24.90;98.60
16627;DHT22;8427;52.204;7.202;2022-07-17T13:10:58;25.10;99.90
16627;DHT22;8427;52.204;7.202;2022-07-17T13:13:27;24.80;99.90
16627;DHT22;8427;52.204;7.202;2022-07-17T13:15:57;25.00;99.90
16627;DHT22;8427;52.204;7.202;2022-07-17T13:18:25;24.90;99.90
16627;DHT22;8427;52.204;7.202;2022-07-17T13:20:53;25.00;99.90
16627;DHT22;8427;52.204;7.202;2022-07-17T13:23:29;25.00;99.90
16627;DHT22;8427;52.204;7.202;2022-07-17T13:25:57;25.00;99.90
16627;DHT22;8427;52.204;7.202;2022-07-17T13:28:26;25.10;99.90
16627;DHT22;8427;52.204;7.202;2022-07-17T13:30:54;25.30;99.90
16627;DHT22;8427;52.204;7.202;2022-07-17T13:33:23;25.30;99.40
16627;DHT22;8427;52.204;7.202;2022-07-17T13:35:51;25.40;99.30
16627;DHT22;8427;52.204;7.202;2022-07-17T13:38:21;25.40;99.90
16627;DHT22;8427;52.204;7.202;2022-07-17T13:40:51;25.40;98.20
16627;DHT22;8427;52.204;7.202;2022-07-17T13:43:19;25.40;98.70
16627;DHT22;8427;52.204;7.202;2022-07-17T13:45:49;25.40;98.50
16627;DHT22;8427;52.204;7.202;2022-07-17T13:48:17;25.40;99.50
16627;DHT22;8427;52.204;7.202;2022-07-17T13:50:46;25.60;99.70
16627;DHT22;8427;52.204;7.202;2022-07-17T13:53:14;25.60;98.70
16627;DHT22;8427;52.204;7.202;2022-07-17T13:55:43;25.60;98.80
16627;DHT22;8427;52.204;7.202;2022-07-17T13:58:19;25.50;99.00
16627;DHT22;8427;52.204;7.202;2022-07-17T14:00:47;25.70;99.80
16627;DHT22;8427;52.204;7.202;2022-07-17T14:03:16;25.80;99.90
16627;DHT22;8427;52.204;7.202;2022-07-17T14:05:44;25.90;99.10
16627;DHT22;8427;52.204;7.202;2022-07-17T14:08:12;25.80;99.90
16627;DHT22;8427;52.204;7.202;2022-07-17T14:10:42;25.80;99.90
16627;DHT22;8427;52.204;7.202;2022-07-17T14:13:10;25.50;98.60
16627;DHT22;8427;52.204;7.202;2022-07-17T14:15:40;25.60;98.90
16627;DHT22;8427;52.204;7.202;2022-07-17T14:18:08;25.50;97.70
16627;DHT22;8427;52.204;7.202;2022-07-17T14:20:36;25.60;99.90
16627;DHT22;8427;52.204;7.202;2022-07-17T14:23:05;25.70;99.90
16627;DHT22;8427;52.204;7.202;2022-07-17T14:25:33;25.70;98.50
16627;DHT22;8427;52.204;7.202;2022-07-17T14:28:08;25.70;98.70
16627;DHT22;8427;52.204;7.202;2022-07-17T14:30:37;25.60;98.40
16627;DHT22;8427;52.204;7.202;2022-07-17T14:33:06;25.60;98.60
16627;DHT22;8427;52.204;7.202;2022-07-17T14:35:35;25.80;99.90
16627;DHT22;8427;52.204;7.202;2022-07-17T14:38:03;25.90;99.90
16627;DHT22;8427;52.204;7.202;2022-07-17T14:40:33;25.90;99.80
16627;DHT22;8427;52.204;7.202;2022-07-17T14:43:01;25.90;99.90
16627;DHT22;8427;52.204;7.202;2022-07-17T14:45:29;25.90;99.40
16627;DHT22;8427;52.204;7.202;2022-07-17T14:47:58;25.80;99.00
16627;DHT22;8427;52.204;7.202;2022-07-17T14:50:27;26.00;99.00
16627;DHT22;8427;52.204;7.202;2022-07-17T14:52:58;26.00;99.90
16627;DHT22;8427;52.204;7.202;2022-07-17T14:55:26;26.00;99.90
16627;DHT22;8427;52.204;7.202;2022-07-17T14:57:55;26.00;97.80
16627;DHT22;8427;52.204;7.202;2022-07-17T15:00:23;25.90;97.60
16627;DHT22;8427;52.204;7.202;2022-07-17T15:02:51;25.80;97.00
16627;DHT22;8427;52.204;7.202;2022-07-17T15:05:20;25.90;98.20
16627;DHT22;8427;52.204;7.202;2022-07-17T15:07:50;25.90;97.90
16627;DHT22;8427;52.204;7.202;2022-07-17T15:10:18;25.90;98.10
16627;DHT22;8427;52.204;7.202;2022-07-17T15:12:46;25.80;97.90
16627;DHT22;8427;52.204;7.202;2022-07-17T15:15:15;25.90;99.50
16627;DHT22;8427;52.204;7.202;2022-07-17T15:17:43;25.90;98.70
16627;DHT22;8427;52.204;7.202;2022-07-17T15:20:11;25.90;98.60
16627;DHT22;8427;52.204;7.202;2022-07-17T15:22:39;26.00;98.50
16627;DHT22;8427;52.204;7.202;2022-07-17T15:25:09;26.10;97.70
16627;DHT22;8427;52.204;7.202;2022-07-17T15:27:38;26.00;99.10
16627;DHT22;8427;52.204;7.202;2022-07-17T15:30:07;25.90;99.50
16627;DHT22;8427;52.204;7.202;2022-07-17T15:32:35;26.00;99.90
16627;DHT22;8427;52.204;7.202;2022-07-17T15:35:06;26.00;97.40
16627;DHT22;8427;52.204;7.202;2022-07-17T15:37:34;25.90;96.90
16627;DHT22;8427;52.204;7.202;2022-07-17T15:40:04;25.90;98.50
16627;DHT22;8427;52.204;7.202;2022-07-17T15:42:34;25.80;97.80
16627;DHT22;8427;52.204;7.202;2022-07-17T15:45:03;25.80;99.90
16627;DHT22;8427;52.204;7.202;2022-07-17T15:47:31;26.10;99.90
16627;DHT22;8427;52.204;7.202;2022-07-17T15:49:59;26.10;99.30
16627;DHT22;8427;52.204;7.202;2022-07-17T15:52:30;26.20;99.90
16627;DHT22;8427;52.204;7.202;2022-07-17T15:54:58;26.20;99.90
16627;DHT22;8427;52.204;7.202;2022-07-17T15:57:27;26.60;97.30
16627;DHT22;8427;52.204;7.202;2022-07-17T15:59:57;26.70;99.90
16627;DHT22;8427;52.204;7.202;2022-07-17T16:02:25;26.50;99.90
16627;DHT22;8427;52.204;7.202;2022-07-17T16:04:53;26.50;99.60
16627;DHT22;8427;52.204;7.202;2022-07-17T16:07:21;26.40;99.20